createdAt,value
2019-04-10T00:00:56.851Z,4.20
2019-04-10T00:03:32.863Z,4.20
2019-04-10T00:05:58.423Z,4.10
2019-04-10T00:08:28.342Z,4.10
2019-04-10T00:10:58.543Z,4.10
2019-04-10T00:13:29.308Z,4.10
2019-04-10T00:15:59.135Z,4.00
2019-04-10T00:18:29.662Z,3.90
2019-04-10T00:20:59.334Z,3.90
2019-04-10T00:23:29.280Z,3.90
2019-04-10T00:25:59.390Z,3.80
2019-04-10T00:28:29.646Z,3.90
2019-04-10T00:30:59.750Z,3.80
2019-04-10T00:33:29.361Z,3.80
2019-04-10T00:35:59.539Z,3.80
2019-04-10T00:38:30.227Z,3.70
2019-04-10T00:41:00.137Z,3.70
2019-04-10T00:43:30.768Z,3.60
2019-04-10T00:46:00.377Z,3.50
2019-04-10T00:48:30.255Z,3.40
2019-04-10T00:50:59.802Z,3.40
2019-04-10T00:53:29.598Z,3.40
2019-04-10T00:55:59.912Z,3.30
2019-04-10T00:58:30.214Z,3.20
2019-04-10T01:01:00.018Z,3.20
2019-04-10T01:03:46.666Z,3.20
2019-04-10T01:06:16.080Z,3.10
2019-04-10T01:08:45.930Z,3.10
2019-04-10T01:11:15.464Z,3.10
2019-04-10T01:13:45.465Z,3.10
2019-04-10T01:16:16.281Z,3.00
2019-04-10T01:18:46.299Z,3.00
2019-04-10T01:21:15.847Z,3.00
2019-04-10T01:23:45.361Z,3.00
2019-04-10T01:26:15.008Z,3.00
2019-04-10T01:28:45.070Z,2.90
2019-04-10T01:31:15.174Z,2.90
2019-04-10T01:33:45.948Z,2.80
2019-04-10T01:36:15.623Z,2.80
2019-04-10T01:38:46.056Z,2.80
2019-04-10T01:41:16.146Z,2.70
2019-04-10T01:43:46.809Z,2.70
2019-04-10T01:46:16.386Z,2.60
2019-04-10T01:48:46.138Z,2.50
2019-04-10T01:51:15.631Z,2.50
2019-04-10T01:53:46.154Z,2.50
2019-04-10T01:56:25.076Z,2.40
2019-04-10T01:58:48.070Z,2.40
2019-04-10T02:01:24.422Z,2.40
2019-04-10T02:03:54.265Z,2.40
2019-04-10T02:06:23.989Z,2.40
2019-04-10T02:08:54.239Z,2.40
2019-04-10T02:11:24.070Z,2.40
2019-04-10T02:13:53.992Z,2.30
2019-04-10T02:16:24.548Z,2.30
2019-04-10T02:18:55.176Z,2.30
2019-04-10T02:21:25.458Z,2.20
2019-04-10T02:23:55.158Z,2.20
2019-04-10T02:26:25.555Z,2.20
2019-04-10T02:28:55.477Z,2.10
2019-04-10T02:31:26.391Z,2.10
2019-04-10T02:33:58.021Z,2.00
2019-04-10T02:36:29.807Z,2.00
2019-04-10T02:39:12.164Z,1.90
2019-04-10T02:41:32.180Z,1.90
2019-04-10T02:44:02.934Z,1.80
2019-04-10T02:46:33.153Z,1.80
2019-04-10T02:49:04.052Z,1.70
2019-04-10T02:51:35.087Z,1.70
2019-04-10T02:54:05.619Z,1.70
2019-04-10T02:56:36.535Z,1.70
2019-04-10T02:59:07.402Z,1.70
2019-04-10T03:01:37.881Z,1.70
2019-04-10T03:04:07.885Z,1.60
2019-04-10T03:06:39.575Z,1.60
2019-04-10T03:09:28.938Z,1.60
2019-04-10T03:11:41.995Z,1.50
2019-04-10T03:14:12.511Z,1.50
2019-04-10T03:16:42.434Z,1.40
2019-04-10T03:19:12.287Z,1.40
2019-04-10T03:21:42.948Z,1.40
2019-04-10T03:24:12.501Z,1.40
2019-04-10T03:26:42.006Z,1.30
2019-04-10T03:29:11.673Z,1.30
2019-04-10T03:31:41.723Z,1.40
2019-04-10T03:34:22.411Z,1.40
2019-04-10T03:36:51.666Z,1.30
2019-04-10T03:39:21.630Z,1.30
2019-04-10T03:41:52.550Z,1.30
2019-04-10T03:44:22.833Z,1.30
2019-04-10T03:46:53.859Z,1.20
2019-04-10T03:49:23.432Z,1.20
2019-04-10T03:51:53.358Z,1.10
2019-04-10T03:54:22.989Z,1.10
2019-04-10T03:56:52.578Z,1.00
2019-04-10T03:59:22.382Z,1.00
2019-04-10T04:01:55.478Z,1.00
2019-04-10T04:04:25.800Z,1.00
2019-04-10T04:06:55.788Z,1.00
2019-04-10T04:09:25.694Z,1.00
2019-04-10T04:11:55.825Z,1.00
2019-04-10T04:14:25.360Z,0.90
2019-04-10T04:16:55.598Z,0.90
2019-04-10T04:19:26.060Z,1.00
2019-04-10T04:21:56.384Z,1.00
2019-04-10T04:24:26.641Z,1.00
2019-04-10T04:26:57.394Z,1.00
2019-04-10T04:29:27.037Z,1.00
2019-04-10T04:31:56.890Z,0.90
2019-04-10T04:34:27.223Z,0.90
2019-04-10T04:36:56.887Z,0.90
2019-04-10T04:39:28.190Z,0.80
2019-04-10T04:41:58.783Z,0.80
2019-04-10T04:44:29.195Z,0.80
2019-04-10T04:46:59.161Z,0.80
2019-04-10T04:49:29.642Z,0.80
2019-04-10T04:52:00.204Z,0.80
2019-04-10T04:54:30.919Z,0.70
2019-04-10T04:57:00.538Z,0.70
2019-04-10T04:59:30.059Z,0.70
2019-04-10T05:01:59.607Z,0.70
2019-04-10T05:04:32.321Z,0.70
2019-04-10T05:07:01.735Z,0.70
2019-04-10T05:09:36.943Z,0.70
2019-04-10T05:12:02.918Z,0.70
2019-04-10T05:14:32.875Z,0.70
2019-04-10T05:17:02.445Z,0.70
2019-04-10T05:19:32.392Z,0.80
2019-04-10T05:22:02.338Z,0.80
2019-04-10T05:24:32.067Z,0.80
2019-04-10T05:27:01.551Z,0.80
2019-04-10T05:29:31.354Z,0.80
2019-04-10T05:32:00.981Z,0.80
2019-04-10T05:34:30.658Z,0.90
2019-04-10T05:37:00.463Z,0.90
2019-04-10T05:39:40.577Z,1.00
2019-04-10T05:42:02.836Z,1.00
2019-04-10T05:44:34.016Z,1.00
2019-04-10T05:47:03.698Z,1.10
2019-04-10T05:49:33.230Z,1.10
2019-04-10T05:52:02.706Z,1.20
2019-04-10T05:54:33.288Z,1.20
2019-04-10T05:57:03.995Z,1.30
2019-04-10T05:59:34.277Z,1.30
2019-04-10T06:02:03.799Z,1.40
2019-04-10T06:04:33.628Z,1.40
2019-04-10T06:07:03.584Z,1.50
2019-04-10T06:09:33.193Z,1.60
2019-04-10T06:12:04.090Z,1.60
2019-04-10T06:14:35.471Z,1.70
2019-04-10T06:17:05.918Z,1.70
2019-04-10T06:19:36.355Z,1.90
2019-04-10T06:22:06.204Z,1.90
2019-04-10T06:24:36.416Z,1.90
2019-04-10T06:27:06.383Z,2.00
2019-04-10T06:29:37.105Z,2.10
2019-04-10T06:32:07.364Z,2.10
2019-04-10T06:34:36.934Z,2.20
2019-04-10T06:37:06.614Z,2.30
2019-04-10T06:39:37.170Z,2.30
2019-04-10T06:42:06.787Z,2.40
2019-04-10T06:44:36.433Z,2.50
2019-04-10T06:47:06.452Z,2.50
2019-04-10T06:49:36.588Z,2.60
2019-04-10T06:52:06.611Z,2.60
2019-04-10T06:54:36.435Z,2.70
2019-04-10T06:57:06.457Z,2.70
2019-04-10T06:59:37.689Z,2.80
2019-04-10T07:02:16.685Z,2.90
2019-04-10T07:04:47.786Z,2.90
2019-04-10T07:07:13.746Z,3.00
2019-04-10T07:09:42.157Z,3.10
2019-04-10T07:12:12.198Z,3.10
2019-04-10T07:14:45.531Z,3.10
2019-04-10T07:17:14.390Z,3.30
2019-04-10T07:19:45.566Z,3.20
2019-04-10T07:22:16.215Z,3.30
2019-04-10T07:24:46.780Z,3.50
2019-04-10T07:27:16.439Z,3.60
2019-04-10T07:29:50.724Z,3.60
2019-04-10T07:32:18.414Z,3.70
2019-04-10T07:34:48.749Z,3.80
2019-04-10T07:37:21.694Z,4.00
2019-04-10T07:39:49.413Z,4.10
2019-04-10T07:42:26.831Z,4.10
2019-04-10T07:44:50.105Z,4.10
2019-04-10T07:47:21.177Z,4.20
2019-04-10T07:49:52.437Z,4.30
2019-04-10T07:52:23.046Z,4.50
2019-04-10T07:54:54.478Z,4.50
2019-04-10T07:57:24.526Z,4.60
2019-04-10T07:59:54.665Z,4.70
2019-04-10T08:02:25.407Z,4.80
2019-04-10T08:04:55.923Z,4.90
2019-04-10T08:07:30.427Z,5.10
2019-04-10T08:09:56.638Z,5.20
2019-04-10T08:12:38.455Z,5.30
2019-04-10T08:14:57.642Z,5.40
2019-04-10T08:17:28.213Z,5.60
2019-04-10T08:19:57.860Z,5.80
2019-04-10T08:22:28.595Z,5.80
2019-04-10T08:24:58.186Z,5.80
2019-04-10T08:27:28.484Z,5.60
2019-04-10T08:29:59.008Z,5.80
2019-04-10T08:32:28.629Z,5.80
2019-04-10T08:34:58.226Z,6.00
2019-04-10T08:37:28.299Z,6.10
2019-04-10T08:39:59.048Z,6.20
2019-04-10T08:42:28.902Z,6.30
2019-04-10T08:44:58.593Z,6.40
2019-04-10T08:47:28.606Z,6.30
2019-04-10T08:49:59.241Z,6.40
2019-04-10T08:52:28.750Z,6.50
2019-04-10T08:54:58.270Z,6.40
2019-04-10T08:57:28.182Z,6.60
2019-04-10T08:59:58.302Z,6.70
2019-04-10T09:02:28.309Z,6.80
2019-04-10T09:04:59.377Z,6.70
2019-04-10T09:07:28.955Z,6.90
2019-04-10T09:09:58.471Z,7.00
2019-04-10T09:12:28.118Z,6.80
2019-04-10T09:14:57.650Z,6.90
2019-04-10T09:17:27.163Z,7.00
2019-04-10T09:19:56.644Z,7.00
2019-04-10T09:22:26.291Z,7.10
2019-04-10T09:24:55.867Z,7.40
2019-04-10T09:27:26.836Z,7.40
2019-04-10T09:29:56.472Z,7.50
2019-04-10T09:32:26.496Z,7.70
2019-04-10T09:34:56.267Z,7.80
2019-04-10T09:37:26.106Z,7.90
2019-04-10T09:39:56.517Z,7.80
2019-04-10T09:42:26.122Z,7.70
2019-04-10T09:44:55.610Z,8.00
2019-04-10T09:47:25.150Z,8.10
2019-04-10T09:49:55.495Z,8.00
2019-04-10T09:52:25.808Z,8.00
2019-04-10T09:54:55.365Z,8.00
2019-04-10T09:57:24.882Z,8.00
2019-04-10T09:59:54.583Z,8.30
2019-04-10T10:02:25.246Z,8.10
2019-04-10T10:04:55.630Z,8.20
2019-04-10T10:07:26.350Z,8.20
2019-04-10T10:09:59.259Z,8.20
2019-04-10T10:12:27.977Z,8.30
2019-04-10T10:14:57.534Z,8.20
2019-04-10T10:17:27.037Z,8.30
2019-04-10T10:19:57.431Z,8.50
2019-04-10T10:22:27.482Z,8.70
2019-04-10T10:24:57.794Z,8.60
2019-04-10T10:27:27.334Z,8.60
2019-04-10T10:29:57.829Z,8.70
2019-04-10T10:32:27.463Z,8.70
2019-04-10T10:34:57.008Z,8.90
2019-04-10T10:37:26.528Z,9.00
2019-04-10T10:39:55.997Z,8.90
2019-04-10T10:42:25.572Z,9.00
2019-04-10T10:44:55.062Z,9.00
2019-04-10T10:47:24.583Z,9.00
2019-04-10T10:49:54.915Z,9.10
2019-04-10T10:52:24.422Z,9.10
2019-04-10T10:54:54.782Z,9.10
2019-04-10T10:57:24.830Z,8.90
2019-04-10T10:59:54.693Z,9.00
2019-04-10T11:02:25.448Z,9.00
2019-04-10T11:04:55.819Z,9.00
2019-04-10T11:07:25.379Z,9.10
2019-04-10T11:09:54.898Z,9.30
2019-04-10T11:12:26.076Z,9.30
2019-04-10T11:14:56.245Z,9.50
2019-04-10T11:17:28.063Z,9.60
2019-04-10T11:19:57.703Z,9.70
2019-04-10T11:22:27.330Z,9.80
2019-04-10T11:24:57.544Z,9.60
2019-04-10T11:27:28.006Z,9.80
2019-04-10T11:30:00.855Z,10.00
2019-04-10T11:32:30.328Z,9.80
2019-04-10T11:35:00.425Z,9.30
2019-04-10T11:40:02.125Z,9.50
2019-04-10T11:42:33.339Z,9.70
2019-04-10T11:45:06.245Z,9.40
2019-04-10T11:47:36.439Z,9.20
2019-04-10T11:50:09.496Z,9.20
2019-04-10T11:52:44.533Z,9.30
2019-04-10T11:55:13.763Z,9.40
2019-04-10T11:57:41.964Z,9.40
2019-04-10T12:00:18.800Z,9.40
2019-04-10T12:02:47.397Z,9.70
2019-04-10T12:05:19.876Z,10.10
2019-04-10T12:08:09.527Z,10.30
2019-04-10T12:12:51.475Z,10.40
2019-04-10T12:15:23.725Z,10.50
2019-04-10T12:17:54.080Z,10.20
2019-04-10T12:20:23.782Z,10.10
2019-04-10T12:22:54.502Z,10.20
2019-04-10T12:25:24.963Z,10.40
2019-04-10T12:27:55.757Z,10.40
2019-04-10T12:30:26.917Z,10.20
2019-04-10T12:32:56.854Z,10.50
2019-04-10T12:35:27.146Z,10.70
2019-04-10T12:38:02.277Z,10.90
2019-04-10T12:40:28.744Z,10.60
2019-04-10T12:42:58.794Z,10.30
2019-04-10T12:45:28.972Z,10.40
2019-04-10T12:47:58.591Z,10.50
2019-04-10T12:50:28.679Z,10.60
2019-04-10T12:52:58.895Z,10.30
2019-04-10T12:55:28.982Z,10.40
2019-04-10T12:58:06.512Z,10.60
2019-04-10T13:00:30.222Z,10.80
2019-04-10T13:03:00.744Z,10.90
2019-04-10T13:05:31.349Z,11.00
2019-04-10T13:08:12.044Z,11.00
2019-04-10T13:10:32.134Z,11.00
2019-04-10T13:13:01.912Z,11.10
2019-04-10T13:15:31.912Z,11.20
2019-04-10T13:18:01.935Z,10.50
2019-04-10T13:20:31.660Z,10.60
2019-04-10T13:23:01.315Z,11.00
2019-04-10T13:25:30.778Z,10.90
2019-04-10T13:28:01.255Z,10.90
2019-04-10T13:30:44.746Z,10.70
2019-04-10T13:33:02.536Z,10.60
2019-04-10T13:35:32.430Z,10.80
2019-04-10T13:38:03.128Z,10.90
2019-04-10T13:40:33.219Z,10.90
2019-04-10T13:43:03.343Z,10.90
2019-04-10T13:45:33.356Z,11.00
2019-04-10T13:48:03.897Z,10.90
2019-04-10T13:50:33.434Z,10.90
2019-04-10T13:53:03.855Z,10.70
2019-04-10T13:55:34.578Z,10.70
2019-04-10T13:58:04.102Z,10.70
2019-04-10T14:00:39.542Z,10.60
2019-04-10T14:03:08.836Z,10.30
2019-04-10T14:05:39.077Z,10.50
2019-04-10T14:08:10.331Z,10.60
2019-04-10T14:10:41.413Z,10.60
2019-04-10T14:13:11.606Z,10.90
2019-04-10T14:15:42.146Z,11.00
2019-04-10T14:18:12.276Z,11.00
2019-04-10T14:20:41.998Z,11.00
2019-04-10T14:23:18.663Z,11.00
2019-04-10T14:26:13.986Z,11.10
2019-04-10T14:28:44.953Z,11.10
2019-04-10T14:31:25.223Z,11.20
2019-04-10T14:33:54.721Z,11.00
2019-04-10T14:36:24.582Z,10.90
2019-04-10T14:38:55.112Z,11.00
2019-04-10T14:41:27.489Z,10.80
2019-04-10T14:43:57.854Z,10.80
2019-04-10T14:46:28.413Z,10.80
2019-04-10T14:48:58.047Z,11.00
2019-04-10T14:51:28.271Z,11.20
2019-04-10T14:53:59.497Z,11.00
2019-04-10T14:56:30.455Z,10.90
2019-04-10T14:59:01.003Z,10.70
2019-04-10T15:01:31.642Z,10.70
2019-04-10T15:04:01.177Z,10.80
2019-04-10T15:06:31.218Z,10.90
2019-04-10T15:09:01.179Z,11.00
2019-04-10T15:11:30.897Z,10.90
2019-04-10T15:14:01.324Z,10.90
2019-04-10T15:16:31.597Z,10.80
2019-04-10T15:19:02.515Z,10.80
2019-04-10T15:21:32.290Z,10.90
2019-04-10T15:24:01.800Z,10.90
2019-04-10T15:26:32.309Z,10.90
2019-04-10T15:29:01.943Z,10.70
2019-04-10T15:31:31.470Z,10.70
2019-04-10T15:34:01.597Z,10.60
2019-04-10T15:36:31.812Z,10.50
2019-04-10T15:39:02.325Z,10.70
2019-04-10T15:41:32.903Z,10.60
2019-04-10T15:44:02.604Z,10.40
2019-04-10T15:46:33.116Z,10.40
2019-04-10T15:49:02.910Z,10.30
2019-04-10T15:51:32.596Z,10.30
2019-04-10T15:54:02.314Z,10.40
2019-04-10T15:56:32.231Z,10.50
2019-04-10T15:59:01.811Z,10.40
2019-04-10T16:01:31.727Z,10.40
2019-04-10T16:04:03.128Z,10.40
2019-04-10T16:06:33.441Z,10.30
2019-04-10T16:09:03.516Z,10.30
2019-04-10T16:11:43.785Z,10.30
2019-04-10T16:14:20.585Z,10.20
2019-04-10T16:17:15.569Z,10.30
2019-04-10T16:20:13.398Z,10.20
2019-04-10T16:22:46.778Z,10.30
2019-04-10T16:25:25.599Z,10.40
2019-04-10T16:27:55.617Z,10.50
2019-04-10T16:30:26.301Z,10.60
2019-04-10T16:32:55.766Z,10.40
2019-04-10T16:35:25.464Z,10.30
2019-04-10T16:37:55.942Z,10.20
2019-04-10T16:40:26.864Z,10.10
2019-04-10T16:42:57.279Z,10.10
2019-04-10T16:45:26.935Z,10.10
2019-04-10T16:47:56.701Z,10.00
2019-04-10T16:50:26.249Z,9.90
2019-04-10T16:52:55.877Z,9.90
2019-04-10T16:55:25.382Z,9.70
2019-04-10T16:57:55.701Z,9.60
2019-04-10T17:00:25.502Z,9.50
2019-04-10T17:02:55.040Z,9.40
2019-04-10T17:05:24.815Z,9.30
2019-04-10T17:07:55.313Z,9.30
2019-04-10T17:10:27.954Z,9.20
2019-04-10T17:12:58.310Z,9.20
2019-04-10T17:15:28.252Z,9.10
2019-04-10T17:17:58.914Z,9.10
2019-04-10T17:20:28.793Z,9.00
2019-04-10T17:22:58.791Z,8.90
2019-04-10T17:25:28.521Z,8.80
2019-04-10T17:27:58.038Z,8.70
2019-04-10T17:30:27.579Z,8.60
2019-04-10T17:32:57.300Z,8.50
2019-04-10T17:35:27.564Z,8.40
2019-04-10T17:37:58.142Z,8.30
2019-04-10T17:40:35.405Z,8.20
2019-04-10T17:42:58.928Z,8.10
2019-04-10T17:45:29.174Z,8.00
2019-04-10T17:47:59.556Z,7.90
2019-04-10T17:50:30.056Z,7.80
2019-04-10T17:53:07.324Z,7.80
2019-04-10T17:55:37.713Z,7.70
2019-04-10T17:58:08.029Z,7.60
2019-04-10T18:00:43.203Z,7.40
2019-04-10T18:03:16.253Z,7.40
2019-04-10T18:05:44.724Z,7.40
2019-04-10T18:08:14.637Z,7.30
2019-04-10T18:10:49.447Z,7.30
2019-04-10T18:13:15.585Z,7.30
2019-04-10T18:15:46.333Z,7.30
2019-04-10T18:18:24.053Z,7.20
2019-04-10T18:20:53.592Z,7.10
2019-04-10T18:23:23.484Z,7.10
2019-04-10T18:25:54.129Z,7.00
2019-04-10T18:28:23.740Z,6.80
2019-04-10T18:30:54.474Z,6.60
2019-04-10T18:33:24.538Z,6.50
2019-04-10T18:35:55.252Z,6.40
2019-04-10T18:38:25.723Z,6.30
2019-04-10T18:41:01.645Z,6.20
2019-04-10T18:43:27.029Z,6.10
2019-04-10T18:46:07.053Z,5.90
2019-04-10T18:48:28.984Z,5.80
2019-04-10T18:50:59.355Z,5.70
2019-04-10T18:53:29.005Z,5.60
2019-04-10T18:55:58.626Z,5.40
2019-04-10T18:58:31.749Z,5.30
2019-04-10T19:01:19.420Z,5.10
2019-04-10T19:04:14.089Z,5.00
2019-04-10T19:06:53.125Z,4.90
2019-04-10T19:09:28.073Z,4.90
2019-04-10T19:11:56.860Z,4.90
2019-04-10T19:14:26.550Z,5.00
2019-04-10T19:16:56.164Z,5.00
2019-04-10T19:19:26.226Z,5.00
2019-04-10T19:21:55.989Z,5.00
2019-04-10T19:24:28.036Z,5.10
2019-04-10T19:26:57.876Z,5.10
2019-04-10T19:29:27.848Z,5.10
2019-04-10T19:32:01.495Z,5.10
2019-04-10T19:34:31.661Z,5.00
2019-04-10T19:37:01.307Z,5.00
2019-04-10T19:39:31.971Z,4.90
2019-04-10T19:42:02.845Z,4.90
2019-04-10T19:44:32.487Z,4.80
2019-04-10T19:47:02.140Z,4.70
2019-04-10T19:49:32.832Z,4.60
2019-04-10T19:52:02.443Z,4.50
2019-04-10T19:54:38.785Z,4.60
2019-04-10T19:57:08.929Z,4.60
2019-04-10T19:59:39.790Z,4.60
2019-04-10T20:02:13.550Z,4.60
2019-04-10T20:04:43.092Z,4.60
2019-04-10T20:07:13.194Z,4.60
2019-04-10T20:09:45.070Z,4.50
2019-04-10T20:12:14.586Z,4.50
2019-04-10T20:14:44.499Z,4.40
2019-04-10T20:17:15.596Z,4.30
2019-04-10T20:19:45.232Z,4.30
2019-04-10T20:22:14.789Z,4.30
2019-04-10T20:24:45.119Z,4.40
2019-04-10T20:27:16.008Z,4.40
2019-04-10T20:29:46.250Z,4.30
2019-04-10T20:32:16.077Z,4.20
2019-04-10T20:34:47.546Z,4.10
2019-04-10T20:37:17.208Z,4.10
2019-04-10T20:39:47.445Z,4.00
2019-04-10T20:42:18.151Z,4.00
2019-04-10T20:44:49.076Z,4.00
2019-04-10T20:47:19.498Z,4.00
2019-04-10T20:49:49.419Z,3.80
2019-04-10T20:52:20.012Z,3.80
2019-04-10T20:54:49.564Z,3.80
2019-04-10T20:57:19.479Z,3.80
2019-04-10T20:59:49.059Z,3.70
2019-04-10T21:02:18.593Z,3.70
2019-04-10T21:04:56.598Z,3.60
2019-04-10T21:07:19.696Z,3.50
2019-04-10T21:09:50.179Z,3.50
2019-04-10T21:12:21.098Z,3.50
2019-04-10T21:14:50.989Z,3.40
2019-04-10T21:17:20.597Z,3.30
2019-04-10T21:19:50.048Z,3.30
2019-04-10T21:22:20.357Z,3.30
2019-04-10T21:24:49.952Z,3.30
2019-04-10T21:27:20.691Z,3.30
2019-04-10T21:30:01.877Z,3.20
2019-04-10T21:32:38.710Z,3.20
2019-04-10T21:35:11.462Z,3.20
2019-04-10T21:37:42.326Z,3.20
2019-04-10T21:40:12.273Z,3.10
2019-04-10T21:42:41.743Z,3.00
2019-04-10T21:45:11.703Z,3.00
2019-04-10T21:47:41.856Z,2.90
2019-04-10T21:50:12.992Z,2.90
2019-04-10T21:52:43.479Z,2.90
2019-04-10T21:55:13.070Z,2.80
2019-04-10T21:57:42.754Z,2.80
2019-04-10T22:00:14.573Z,2.80
2019-04-10T22:02:44.987Z,2.70
2019-04-10T22:05:14.676Z,2.70
2019-04-10T22:07:58.793Z,2.70
2019-04-10T22:10:36.287Z,2.70
2019-04-10T22:13:05.916Z,2.80
2019-04-10T22:15:44.822Z,2.70
2019-04-10T22:18:14.885Z,2.50
2019-04-10T22:20:44.643Z,2.60
2019-04-10T22:23:14.158Z,2.60
2019-04-10T22:25:43.795Z,2.50
2019-04-10T22:28:13.456Z,2.50
2019-04-10T22:30:43.761Z,2.50
2019-04-10T22:33:13.946Z,2.40
2019-04-10T22:35:44.300Z,2.30
2019-04-10T22:38:13.867Z,2.40
2019-04-10T22:40:44.159Z,2.30
2019-04-10T22:43:13.893Z,2.30
2019-04-10T22:45:44.380Z,2.30
2019-04-10T22:48:14.694Z,2.30
2019-04-10T22:50:45.031Z,2.30
2019-04-10T22:53:15.161Z,2.30
2019-04-10T22:55:44.766Z,2.20
2019-04-10T22:58:14.952Z,2.10
2019-04-10T23:00:46.025Z,2.10
2019-04-10T23:03:15.816Z,2.10
2019-04-10T23:05:45.442Z,2.10
2019-04-10T23:08:15.637Z,2.10
2019-04-10T23:10:45.519Z,2.10
2019-04-10T23:13:16.068Z,2.10
2019-04-10T23:15:46.010Z,2.10
2019-04-10T23:18:17.120Z,2.00
2019-04-10T23:20:46.624Z,2.00
2019-04-10T23:23:16.877Z,1.90
2019-04-10T23:25:46.781Z,1.90
2019-04-10T23:28:16.303Z,1.80
2019-04-10T23:30:45.798Z,1.80
2019-04-10T23:33:15.743Z,1.70
2019-04-10T23:35:45.574Z,1.60
2019-04-10T23:38:15.294Z,1.60
2019-04-10T23:40:45.213Z,1.60
2019-04-10T23:43:17.119Z,1.60
2019-04-10T23:45:46.254Z,1.60
2019-04-10T23:48:17.016Z,1.60
2019-04-10T23:50:48.316Z,1.50
2019-04-10T23:53:18.046Z,1.50
2019-04-10T23:55:48.306Z,1.50
2019-04-10T23:58:18.307Z,1.40
